Terminal Aerodrome Forecast
Issued by NWS Albuquerque, NM

Home | Current Version | Previous Version | Text Only | Print | Product List | Glossary On
Versions: 1 2 3 4 5 6 7 8 9 10 11 12 13
000
FTUS45 KABQ 040541
TAFABQ
TAF
KABQ 040541Z 0406/0506 18009KT P6SM BKN090
     FM041200 VRB04KT P6SM VCSH BKN080
     FM042000 20014G22KT P6SM VCTS BKN080CB
      TEMPO 0420/0424 -TSRA BKN070CB
     FM050100 16012G20KT P6SM VCSH BKN070=

USA.gov is the U.S. government's official web portal to all federal, state and local government web resources and services.